createdAt,value
2023-02-13T00:00:44.418Z,1.60
2023-02-13T00:03:11.454Z,1.50
2023-02-13T00:05:38.464Z,1.50
2023-02-13T00:08:05.644Z,1.60
2023-02-13T00:10:32.748Z,1.60
2023-02-13T00:12:59.743Z,1.50
2023-02-13T00:15:26.919Z,1.33
2023-02-13T00:17:53.933Z,1.10
2023-02-13T00:20:20.973Z,1.30
2023-02-13T00:22:47.992Z,1.13
2023-02-13T00:25:14.958Z,1.40
2023-02-13T00:27:42.060Z,1.50
2023-02-13T00:30:09.705Z,1.45
2023-02-13T00:32:36.867Z,1.30
2023-02-13T00:35:03.892Z,1.13
2023-02-13T00:37:31.035Z,1.30
2023-02-13T00:39:58.313Z,1.25
2023-02-13T00:42:26.698Z,1.48
2023-02-13T00:44:54.459Z,1.40
2023-02-13T00:47:22.070Z,1.50
2023-02-13T00:49:49.975Z,1.48
2023-02-13T00:52:17.125Z,1.40
2023-02-13T00:54:44.202Z,1.40
2023-02-13T00:57:12.864Z,1.40
2023-02-13T00:59:42.515Z,1.23
2023-02-13T01:02:10.178Z,1.40
2023-02-13T01:04:37.316Z,1.30
2023-02-13T01:07:07.047Z,1.40
2023-02-13T01:09:35.294Z,1.50
2023-02-13T01:12:02.409Z,1.40
2023-02-13T01:14:29.382Z,1.40
2023-02-13T01:16:58.941Z,1.17
2023-02-13T01:19:29.573Z,1.23
2023-02-13T01:21:56.595Z,1.30
2023-02-13T01:24:23.554Z,1.40
2023-02-13T01:26:50.532Z,1.33
2023-02-13T01:29:17.711Z,1.50
2023-02-13T01:31:44.938Z,1.02
2023-02-13T01:34:11.943Z,1.20
2023-02-13T01:36:40.885Z,1.40
2023-02-13T01:39:07.903Z,1.48
2023-02-13T01:41:34.882Z,1.30
2023-02-13T01:44:02.545Z,1.50
2023-02-13T01:46:34.009Z,1.02
2023-02-13T01:49:25.966Z,1.33
2023-02-13T01:51:55.423Z,1.27
2023-02-13T01:54:31.251Z,1.20
2023-02-13T01:57:18.217Z,1.40
2023-02-13T02:00:07.355Z,1.60
2023-02-13T02:02:59.672Z,1.02
2023-02-13T02:05:29.223Z,1.60
2023-02-13T02:07:59.028Z,1.58
2023-02-13T02:10:26.059Z,1.27
2023-02-13T02:13:13.472Z,1.40
2023-02-13T02:15:42.022Z,1.50
2023-02-13T02:18:16.504Z,1.17
2023-02-13T02:21:15.721Z,1.17
2023-02-13T02:24:11.730Z,1.38
2023-02-13T02:27:05.679Z,1.45
2023-02-13T02:29:43.626Z,1.30
2023-02-13T02:32:17.164Z,1.30
2023-02-13T02:34:56.650Z,1.35
2023-02-13T02:37:44.734Z,1.40
2023-02-13T02:40:29.572Z,1.50
2023-02-13T02:43:21.826Z,1.60
2023-02-13T02:45:58.483Z,1.30
2023-02-13T02:49:14.080Z,1.40
2023-02-13T02:52:03.059Z,1.50
2023-02-13T02:54:58.807Z,1.40
2023-02-13T02:57:51.792Z,1.10
2023-02-13T03:00:41.317Z,1.40
2023-02-13T03:03:39.517Z,1.30
2023-02-13T03:06:16.833Z,1.48
2023-02-13T03:09:05.894Z,1.30
2023-02-13T03:11:51.278Z,1.30
2023-02-13T03:14:20.873Z,1.40
2023-02-13T03:17:07.086Z,1.52
2023-02-13T03:20:23.965Z,1.40
2023-02-13T03:23:03.170Z,1.40
2023-02-13T03:26:00.847Z,1.40
2023-02-13T03:28:47.161Z,1.40
2023-02-13T03:31:37.210Z,1.50
2023-02-13T03:34:21.831Z,1.40
2023-02-13T03:37:18.471Z,1.30
2023-02-13T03:40:05.523Z,1.33
2023-02-13T03:43:01.626Z,1.20
2023-02-13T03:45:53.332Z,1.50
2023-02-13T03:48:56.952Z,1.17
2023-02-13T03:51:29.442Z,1.23
2023-02-13T03:53:59.949Z,1.42
2023-02-13T03:56:46.950Z,1.08
2023-02-13T03:59:20.932Z,1.10
2023-02-13T04:02:12.785Z,1.30
2023-02-13T04:05:05.455Z,1.40
2023-02-13T04:07:33.038Z,1.38
2023-02-13T04:10:06.879Z,1.38
2023-02-13T04:12:38.834Z,1.40
2023-02-13T04:15:15.858Z,0.98
2023-02-13T04:17:50.392Z,1.30
2023-02-13T04:20:19.716Z,1.30
2023-02-13T04:22:48.600Z,1.15
2023-02-13T04:25:17.259Z,1.23
2023-02-13T04:27:44.566Z,1.38
2023-02-13T04:30:12.192Z,1.30
2023-02-13T04:32:39.310Z,1.05
2023-02-13T04:35:06.927Z,1.13
2023-02-13T04:37:33.942Z,1.10
2023-02-13T04:40:00.957Z,1.08
2023-02-13T04:42:28.986Z,1.00
2023-02-13T04:44:57.145Z,1.23
2023-02-13T04:47:24.354Z,1.10
2023-02-13T04:49:51.476Z,1.30
2023-02-13T04:52:18.732Z,1.00
2023-02-13T04:54:45.676Z,1.05
2023-02-13T04:57:12.737Z,1.10
2023-02-13T04:59:42.562Z,1.08
2023-02-13T05:02:09.653Z,1.10
2023-02-13T05:04:36.834Z,1.40
2023-02-13T05:07:03.808Z,1.00
2023-02-13T05:09:30.814Z,1.00
2023-02-13T05:11:59.669Z,1.10
2023-02-13T05:14:28.482Z,1.00
2023-02-13T05:16:55.542Z,1.10
2023-02-13T05:19:22.622Z,0.80
2023-02-13T05:22:08.454Z,1.10
2023-02-13T05:24:36.231Z,1.05
2023-02-13T05:27:03.926Z,1.23
2023-02-13T05:29:31.261Z,1.02
2023-02-13T05:32:00.050Z,0.88
2023-02-13T05:34:29.076Z,1.00
2023-02-13T05:37:00.380Z,1.00
2023-02-13T05:39:27.448Z,0.90
2023-02-13T05:41:54.377Z,0.93
2023-02-13T05:44:21.384Z,1.10
2023-02-13T05:46:49.528Z,0.85
2023-02-13T05:49:16.665Z,0.90
2023-02-13T05:51:44.029Z,0.70
2023-02-13T05:54:11.000Z,1.08
2023-02-13T05:56:38.122Z,1.00
2023-02-13T05:59:06.127Z,0.98
2023-02-13T06:01:34.647Z,1.00
2023-02-13T06:04:03.855Z,1.10
2023-02-13T06:06:31.220Z,1.05
2023-02-13T06:09:03.879Z,1.00
2023-02-13T06:11:30.801Z,1.10
2023-02-13T06:13:57.753Z,0.88
2023-02-13T06:16:24.967Z,1.00
2023-02-13T06:18:52.085Z,1.02
2023-02-13T06:21:19.036Z,0.73
2023-02-13T06:23:46.011Z,1.00
2023-02-13T06:26:14.316Z,0.88
2023-02-13T06:28:41.911Z,1.10
2023-02-13T06:31:09.128Z,1.00
2023-02-13T06:33:36.263Z,0.85
2023-02-13T06:36:03.703Z,1.10
2023-02-13T06:38:32.282Z,1.05
2023-02-13T06:41:01.366Z,0.90
2023-02-13T06:43:31.467Z,1.10
2023-02-13T06:45:58.856Z,1.00
2023-02-13T06:48:26.125Z,0.80
2023-02-13T06:50:53.193Z,0.98
2023-02-13T06:53:25.101Z,1.00
2023-02-13T06:55:54.178Z,1.10
2023-02-13T06:58:25.422Z,1.08
2023-02-13T07:00:52.920Z,0.80
2023-02-13T07:03:19.964Z,0.80
2023-02-13T07:05:47.010Z,1.02
2023-02-13T07:08:14.214Z,1.02
2023-02-13T07:10:42.530Z,0.85
2023-02-13T07:13:11.625Z,0.85
2023-02-13T07:15:39.142Z,0.80
2023-02-13T07:18:07.711Z,0.93
2023-02-13T07:20:35.161Z,1.00
2023-02-13T07:23:04.085Z,0.90
2023-02-13T07:25:31.795Z,0.85
2023-02-13T07:28:05.990Z,0.90
2023-02-13T07:30:34.961Z,0.90
2023-02-13T07:33:05.139Z,0.98
2023-02-13T07:35:32.905Z,1.00
2023-02-13T07:38:01.046Z,0.90
2023-02-13T07:40:29.801Z,0.90
2023-02-13T07:43:00.707Z,0.90
2023-02-13T07:45:30.296Z,1.10
2023-02-13T07:47:57.843Z,0.90
2023-02-13T07:50:26.251Z,1.00
2023-02-13T07:53:01.147Z,1.00
2023-02-13T07:58:03.338Z,0.90
2023-02-13T08:00:30.629Z,1.10
2023-02-13T08:03:01.625Z,0.70
2023-02-13T08:05:30.138Z,0.80
2023-02-13T08:07:57.214Z,0.88
2023-02-13T08:10:42.734Z,0.93
2023-02-13T08:13:10.475Z,0.90
2023-02-13T08:15:38.528Z,0.85
2023-02-13T08:18:05.699Z,0.85
2023-02-13T08:20:32.962Z,0.90
2023-02-13T08:23:07.293Z,0.85
2023-02-13T08:25:34.642Z,1.10
2023-02-13T08:28:02.200Z,0.90
2023-02-13T08:30:32.242Z,0.70
2023-02-13T08:32:59.356Z,0.73
2023-02-13T08:35:29.849Z,0.95
2023-02-13T08:37:57.457Z,0.80
2023-02-13T08:40:25.976Z,0.80
2023-02-13T08:42:59.609Z,0.85
2023-02-13T08:45:27.025Z,1.00
2023-02-13T08:47:58.726Z,0.60
2023-02-13T08:50:26.620Z,0.90
2023-02-13T08:52:54.185Z,0.60
2023-02-13T08:55:21.440Z,0.88
2023-02-13T08:57:48.676Z,0.60
2023-02-13T09:00:16.194Z,0.80
2023-02-13T09:02:43.215Z,0.80
2023-02-13T09:05:12.711Z,0.88
2023-02-13T09:07:39.732Z,0.82
2023-02-13T09:10:07.467Z,0.65
2023-02-13T09:12:34.634Z,0.90
2023-02-13T09:15:01.683Z,0.85
2023-02-13T09:17:30.432Z,0.77
2023-02-13T09:19:58.084Z,0.82
2023-02-13T09:22:25.193Z,0.80
2023-02-13T09:24:53.321Z,0.88
2023-02-13T09:27:20.334Z,0.88
2023-02-13T09:29:47.628Z,0.73
2023-02-13T09:32:14.651Z,0.90
2023-02-13T09:34:42.734Z,0.90
2023-02-13T09:37:09.848Z,0.90
2023-02-13T09:39:36.919Z,0.85
2023-02-13T09:42:19.667Z,0.70
2023-02-13T09:45:12.760Z,0.60
2023-02-13T09:47:42.314Z,0.80
2023-02-13T09:50:13.208Z,0.80
2023-02-13T09:52:46.058Z,0.90
2023-02-13T09:55:19.749Z,0.90
2023-02-13T09:58:10.846Z,0.93
2023-02-13T10:00:42.841Z,0.88
2023-02-13T10:03:31.969Z,1.00
2023-02-13T10:06:14.106Z,0.70
2023-02-13T10:09:16.634Z,0.80
2023-02-13T10:12:06.056Z,0.98
2023-02-13T10:14:45.734Z,0.73
2023-02-13T10:17:27.582Z,0.90
2023-02-13T10:19:57.781Z,0.82
2023-02-13T10:22:52.559Z,0.70
2023-02-13T10:25:29.476Z,1.10
2023-02-13T10:28:04.452Z,0.82
2023-02-13T10:30:34.782Z,0.70
2023-02-13T10:33:21.737Z,0.90
2023-02-13T10:36:02.728Z,0.90
2023-02-13T10:38:32.668Z,0.90
2023-02-13T10:41:25.127Z,0.70
2023-02-13T10:44:20.599Z,0.80
2023-02-13T10:47:11.965Z,0.70
2023-02-13T10:50:20.303Z,0.73
2023-02-13T10:53:08.497Z,0.90
2023-02-13T10:55:54.437Z,0.82
2023-02-13T10:58:24.296Z,0.93
2023-02-13T11:00:58.900Z,0.85
2023-02-13T11:03:28.098Z,0.77
2023-02-13T11:05:56.559Z,0.77
2023-02-13T11:08:49.483Z,0.80
2023-02-13T11:11:36.575Z,0.90
2023-02-13T11:14:22.157Z,0.68
2023-02-13T11:16:55.417Z,0.80
2023-02-13T11:19:36.148Z,0.77
2023-02-13T11:22:06.515Z,0.80
2023-02-13T11:24:34.046Z,0.65
2023-02-13T11:27:09.453Z,0.90
2023-02-13T11:29:40.339Z,0.82
2023-02-13T11:32:27.732Z,1.00
2023-02-13T11:34:55.733Z,0.80
2023-02-13T11:37:33.125Z,1.00
2023-02-13T11:40:00.790Z,0.90
2023-02-13T11:42:30.183Z,0.80
2023-02-13T11:45:16.030Z,0.80
2023-02-13T11:47:43.581Z,0.80
2023-02-13T11:50:24.634Z,0.80
2023-02-13T11:53:23.811Z,0.85
2023-02-13T11:56:10.434Z,0.90
2023-02-13T11:58:38.473Z,1.00
2023-02-13T12:01:20.637Z,0.85
2023-02-13T12:04:23.324Z,0.90
2023-02-13T12:07:01.299Z,0.90
2023-02-13T12:09:29.988Z,1.10
2023-02-13T12:12:02.817Z,0.80
2023-02-13T12:14:33.299Z,0.90
2023-02-13T12:17:29.377Z,0.90
2023-02-13T12:19:59.394Z,0.70
2023-02-13T12:22:52.982Z,0.80
2023-02-13T12:25:58.888Z,0.87
2023-02-13T12:28:43.256Z,0.95
2023-02-13T12:31:28.007Z,0.80
2023-02-13T12:34:15.098Z,0.90
2023-02-13T12:37:26.533Z,0.80
2023-02-13T12:40:15.836Z,0.98
2023-02-13T12:42:58.569Z,0.80
2023-02-13T12:45:44.991Z,0.90
2023-02-13T12:48:14.945Z,0.80
2023-02-13T12:50:57.262Z,1.00
2023-02-13T12:53:29.709Z,1.05
2023-02-13T12:56:01.168Z,0.90
2023-02-13T12:59:05.111Z,0.90
2023-02-13T13:02:09.512Z,0.75
2023-02-13T13:04:54.595Z,0.90
2023-02-13T13:07:34.139Z,1.00
2023-02-13T13:10:16.446Z,0.90
2023-02-13T13:13:22.254Z,0.93
2023-02-13T13:16:18.811Z,0.80
2023-02-13T13:19:17.522Z,0.90
2023-02-13T13:21:56.715Z,0.95
2023-02-13T13:24:32.315Z,0.90
2023-02-13T13:27:01.334Z,0.95
2023-02-13T13:29:52.025Z,0.90
2023-02-13T13:32:22.576Z,0.82
2023-02-13T13:34:56.861Z,0.80
2023-02-13T13:39:57.818Z,0.77
2023-02-13T13:45:44.015Z,0.80
2023-02-13T13:48:48.480Z,1.05
2023-02-13T13:51:17.924Z,0.90
2023-02-13T13:53:59.899Z,0.70
2023-02-13T13:56:27.857Z,0.88
2023-02-13T13:58:56.771Z,0.90
2023-02-13T14:01:29.779Z,0.90
2023-02-13T14:03:58.533Z,0.77
2023-02-13T14:06:45.505Z,1.00
2023-02-13T14:09:27.651Z,0.82
2023-02-13T14:11:56.898Z,0.90
2023-02-13T14:14:32.671Z,1.00
2023-02-13T14:17:03.390Z,0.77
2023-02-13T14:19:33.535Z,0.90
2023-02-13T14:22:19.271Z,0.90
2023-02-13T14:25:01.980Z,0.60
2023-02-13T14:27:41.613Z,1.00
2023-02-13T14:30:31.438Z,1.00
2023-02-13T14:33:22.401Z,0.82
2023-02-13T14:36:06.941Z,1.00
2023-02-13T14:38:34.670Z,0.85
2023-02-13T14:41:02.217Z,0.90
2023-02-13T14:43:37.480Z,1.10
2023-02-13T14:46:16.866Z,0.90
2023-02-13T14:48:48.999Z,1.00
2023-02-13T14:51:39.036Z,0.70
2023-02-13T14:54:12.542Z,0.82
2023-02-13T14:56:40.754Z,1.00
2023-02-13T14:59:19.465Z,0.90
2023-02-13T15:01:55.777Z,0.75
2023-02-13T15:04:31.591Z,0.80
2023-02-13T15:06:59.911Z,0.82
2023-02-13T15:09:39.081Z,0.75
2023-02-13T15:12:30.573Z,0.93
2023-02-13T15:14:58.420Z,0.88
2023-02-13T15:17:30.296Z,0.90
2023-02-13T15:20:07.734Z,0.80
2023-02-13T15:22:37.737Z,0.85
2023-02-13T15:25:05.007Z,1.00
2023-02-13T15:27:42.208Z,0.80
2023-02-13T15:30:22.189Z,0.80
2023-02-13T15:33:00.107Z,0.90
2023-02-13T15:35:34.086Z,0.90
2023-02-13T15:38:30.990Z,0.73
2023-02-13T15:41:04.423Z,0.85
2023-02-13T15:43:36.706Z,0.90
2023-02-13T15:46:07.850Z,0.68
2023-02-13T15:48:36.099Z,0.85
2023-02-13T15:51:03.688Z,0.90
2023-02-13T15:53:31.685Z,0.73
2023-02-13T15:56:03.519Z,0.90
2023-02-13T15:58:34.872Z,0.90
2023-02-13T16:01:05.976Z,0.70
2023-02-13T16:03:34.023Z,0.90
2023-02-13T16:06:01.424Z,0.98
2023-02-13T16:08:35.484Z,0.98
2023-02-13T16:11:26.932Z,0.90
2023-02-13T16:14:09.002Z,0.80
2023-02-13T16:16:46.449Z,0.90
2023-02-13T16:19:29.028Z,0.80
2023-02-13T16:21:57.899Z,0.90
2023-02-13T16:24:26.637Z,0.80
2023-02-13T16:26:59.910Z,1.00
2023-02-13T16:29:27.603Z,1.00
2023-02-13T16:32:03.901Z,0.88
2023-02-13T16:34:31.615Z,0.85
2023-02-13T16:36:58.606Z,0.77
2023-02-13T16:39:31.747Z,0.80
2023-02-13T16:42:01.228Z,0.80
2023-02-13T16:44:32.989Z,1.00
2023-02-13T16:47:02.858Z,0.90
2023-02-13T16:49:35.196Z,0.90
2023-02-13T16:52:19.598Z,0.80
2023-02-13T16:54:51.542Z,0.93
2023-02-13T16:57:23.094Z,0.90
2023-02-13T17:00:05.207Z,0.88
2023-02-13T17:02:41.100Z,0.80
2023-02-13T17:05:08.936Z,0.80
2023-02-13T17:07:45.341Z,0.90
2023-02-13T17:10:37.852Z,0.77
2023-02-13T17:13:13.520Z,0.90
2023-02-13T17:15:45.747Z,0.95
2023-02-13T17:18:14.100Z,0.82
2023-02-13T17:20:43.374Z,1.00
2023-02-13T17:23:22.741Z,0.82
2023-02-13T17:25:52.076Z,1.00
2023-02-13T17:28:24.949Z,0.90
2023-02-13T17:30:54.687Z,1.00
2023-02-13T17:33:34.192Z,0.95
2023-02-13T17:36:01.322Z,1.00
2023-02-13T17:38:33.279Z,0.90
2023-02-13T17:41:00.714Z,1.00
2023-02-13T17:43:30.174Z,0.80
2023-02-13T17:45:58.842Z,0.80
2023-02-13T17:48:30.466Z,0.73
2023-02-13T17:50:58.060Z,0.80
2023-02-13T17:53:30.189Z,0.85
2023-02-13T17:55:57.435Z,0.80
2023-02-13T17:58:24.957Z,1.00
2023-02-13T18:00:57.315Z,0.90
2023-02-13T18:03:24.686Z,1.00
2023-02-13T18:05:56.650Z,0.90
2023-02-13T18:08:26.190Z,0.82
2023-02-13T18:10:53.497Z,0.90
2023-02-13T18:13:23.702Z,0.90
2023-02-13T18:15:51.135Z,0.90
2023-02-13T18:18:18.479Z,0.90
2023-02-13T18:20:45.789Z,0.95
2023-02-13T18:23:19.408Z,0.82
2023-02-13T18:25:46.482Z,1.00
2023-02-13T18:28:13.560Z,0.90
2023-02-13T18:30:42.651Z,0.90
2023-02-13T18:33:09.794Z,0.80
2023-02-13T18:35:37.639Z,0.90
2023-02-13T18:38:04.777Z,1.00
2023-02-13T18:40:34.202Z,1.00
2023-02-13T18:43:20.148Z,0.90
2023-02-13T18:45:47.206Z,1.00
2023-02-13T18:48:14.572Z,0.80
2023-02-13T18:50:42.952Z,0.82
2023-02-13T18:53:10.289Z,0.80
2023-02-13T18:55:48.652Z,0.80
2023-02-13T18:58:16.923Z,0.90
2023-02-13T19:00:47.080Z,1.00
2023-02-13T19:03:14.406Z,0.95
2023-02-13T19:05:41.725Z,0.90
2023-02-13T19:08:08.870Z,0.90
2023-02-13T19:10:36.077Z,0.70
2023-02-13T19:13:03.356Z,0.75
2023-02-13T19:15:30.929Z,0.80
2023-02-13T19:17:58.246Z,0.90
2023-02-13T19:20:25.923Z,0.80
2023-02-13T19:22:53.290Z,1.00
2023-02-13T19:25:24.547Z,0.77
2023-02-13T19:27:54.684Z,0.90
2023-02-13T19:30:24.767Z,0.80
2023-02-13T19:32:54.314Z,0.85
2023-02-13T19:35:21.365Z,0.90
2023-02-13T19:37:48.440Z,0.70
2023-02-13T19:40:15.608Z,0.80
2023-02-13T19:42:42.735Z,0.90
2023-02-13T19:45:10.892Z,0.73
2023-02-13T19:47:38.129Z,1.08
2023-02-13T19:50:08.320Z,0.98
2023-02-13T19:52:35.341Z,1.00
2023-02-13T19:55:02.493Z,0.80
2023-02-13T19:57:32.867Z,0.88
2023-02-13T20:00:02.157Z,0.90
2023-02-13T20:02:39.162Z,0.90
2023-02-13T20:05:08.694Z,0.82
2023-02-13T20:07:35.951Z,1.00
2023-02-13T20:10:05.217Z,1.00
2023-02-13T20:12:32.367Z,0.88
2023-02-13T20:14:59.311Z,0.90
2023-02-13T20:17:31.645Z,0.80
2023-02-13T20:19:59.203Z,0.90
2023-02-13T20:22:26.136Z,0.85
2023-02-13T20:24:53.173Z,0.82
2023-02-13T20:27:20.147Z,0.90
2023-02-13T20:29:47.456Z,0.82
2023-02-13T20:32:14.572Z,0.93
2023-02-13T20:34:59.472Z,0.98
2023-02-13T20:37:27.333Z,1.00
2023-02-13T20:39:54.457Z,0.80
2023-02-13T20:42:21.670Z,0.80
2023-02-13T20:44:48.693Z,0.73
2023-02-13T20:47:15.875Z,0.90
2023-02-13T20:49:43.027Z,0.80
2023-02-13T20:52:10.069Z,0.80
2023-02-13T20:54:37.182Z,0.85
2023-02-13T20:57:04.239Z,1.00
2023-02-13T20:59:31.541Z,0.90
2023-02-13T21:04:49.366Z,0.90
2023-02-13T21:07:16.629Z,0.70
2023-02-13T21:09:43.716Z,1.00
2023-02-13T21:12:11.121Z,0.90
2023-02-13T21:14:39.965Z,0.90
2023-02-13T21:17:07.864Z,1.00
2023-02-13T21:19:36.928Z,0.80
2023-02-13T21:22:12.995Z,0.82
2023-02-13T21:24:43.411Z,0.77
2023-02-13T21:27:10.995Z,0.80
2023-02-13T21:29:38.413Z,1.00
2023-02-13T21:32:05.649Z,0.80
2023-02-13T21:34:32.739Z,0.90
2023-02-13T21:36:59.820Z,0.90
2023-02-13T21:39:29.593Z,0.80
2023-02-13T21:41:56.698Z,0.85
2023-02-13T21:44:24.040Z,0.90
2023-02-13T21:46:51.111Z,0.85
2023-02-13T21:49:18.900Z,1.00
2023-02-13T21:51:46.478Z,0.90
2023-02-13T21:54:14.217Z,1.00
2023-02-13T21:56:42.229Z,0.90
2023-02-13T21:59:13.132Z,0.90
2023-02-13T22:01:47.998Z,0.90
2023-02-13T22:04:15.053Z,1.00
2023-02-13T22:06:42.314Z,0.90
2023-02-13T22:09:15.622Z,1.02
2023-02-13T22:11:43.279Z,0.90
2023-02-13T22:14:17.706Z,0.80
2023-02-13T22:16:45.621Z,0.90
2023-02-13T22:19:14.945Z,0.90
2023-02-13T22:21:42.817Z,0.90
2023-02-13T22:24:10.405Z,0.82
2023-02-13T22:26:39.144Z,0.90
2023-02-13T22:29:09.734Z,0.90
2023-02-13T22:31:37.242Z,1.00
2023-02-13T22:34:05.941Z,0.90
2023-02-13T22:36:35.183Z,1.00
2023-02-13T22:39:02.323Z,0.90
2023-02-13T22:41:30.146Z,0.90
2023-02-13T22:43:57.714Z,1.00
2023-02-13T22:46:27.744Z,0.90
2023-02-13T22:48:55.722Z,0.98
2023-02-13T22:51:25.590Z,0.80
2023-02-13T22:53:56.782Z,1.00
2023-02-13T22:56:28.601Z,0.98
2023-02-13T22:58:55.812Z,1.00
2023-02-13T23:01:24.772Z,0.90
2023-02-13T23:03:53.256Z,0.82
2023-02-13T23:06:20.262Z,0.80
2023-02-13T23:08:52.460Z,0.85
2023-02-13T23:11:40.137Z,0.90
2023-02-13T23:14:08.321Z,1.00
2023-02-13T23:16:53.823Z,1.00
2023-02-13T23:19:21.424Z,0.80
2023-02-13T23:21:48.720Z,0.82
2023-02-13T23:24:15.830Z,0.80
2023-02-13T23:26:42.971Z,0.90
2023-02-13T23:29:09.986Z,0.98
2023-02-13T23:31:37.512Z,1.00
2023-02-13T23:34:04.676Z,0.90
2023-02-13T23:36:31.626Z,0.98
2023-02-13T23:38:58.737Z,1.00
2023-02-13T23:41:31.950Z,0.90
2023-02-13T23:44:01.567Z,0.98
2023-02-13T23:46:28.604Z,0.98
2023-02-13T23:48:55.587Z,0.80
2023-02-13T23:51:23.316Z,0.80
2023-02-13T23:53:53.257Z,0.85
2023-02-13T23:56:24.152Z,0.90
2023-02-13T23:58:51.222Z,1.00
